createdAt,value
2023-04-21T00:01:20.491Z,9.80
2023-04-21T00:02:52.705Z,9.02
2023-04-21T00:04:25.457Z,6.50
2023-04-21T00:06:00.647Z,7.15
2023-04-21T00:07:34.500Z,6.80
2023-04-21T00:09:06.559Z,6.32
2023-04-21T00:10:38.725Z,5.47
2023-04-21T00:12:10.836Z,5.72
2023-04-21T00:13:43.103Z,5.75
2023-04-21T00:15:15.100Z,5.75
2023-04-21T00:16:47.676Z,5.43
2023-04-21T00:18:19.714Z,5.75
2023-04-21T00:19:52.261Z,5.43
2023-04-21T00:21:24.395Z,6.00
2023-04-21T00:22:57.236Z,5.55
2023-04-21T00:24:29.352Z,6.05
2023-04-21T00:26:03.221Z,5.72
2023-04-21T00:27:35.392Z,5.22
2023-04-21T00:29:07.511Z,5.40
2023-04-21T00:30:39.622Z,5.43
2023-04-21T00:32:11.914Z,5.72
2023-04-21T00:33:44.009Z,5.35
2023-04-21T00:35:16.120Z,5.43
2023-04-21T00:36:48.322Z,6.07
2023-04-21T00:38:20.583Z,5.88
2023-04-21T00:39:52.714Z,5.32
2023-04-21T00:41:24.811Z,5.53
2023-04-21T00:42:56.950Z,5.35
2023-04-21T00:44:29.018Z,5.32
2023-04-21T00:46:01.175Z,5.55
2023-04-21T00:47:33.540Z,5.50
2023-04-21T00:49:07.581Z,5.95
2023-04-21T00:50:39.640Z,4.80
2023-04-21T00:52:12.189Z,5.38
2023-04-21T00:53:44.718Z,5.33
2023-04-21T00:55:17.284Z,5.65
2023-04-21T00:56:49.755Z,5.80
2023-04-21T00:58:21.922Z,5.75
2023-04-21T00:59:53.991Z,5.25
2023-04-21T01:01:26.438Z,5.45
2023-04-21T01:03:00.659Z,5.97
2023-04-21T01:04:37.421Z,6.78
2023-04-21T01:06:10.088Z,6.80
2023-04-21T01:07:42.232Z,5.38
2023-04-21T01:09:14.387Z,6.03
2023-04-21T01:10:46.502Z,4.93
2023-04-21T01:12:18.569Z,5.15
2023-04-21T01:13:54.285Z,5.30
2023-04-21T01:15:27.859Z,5.38
2023-04-21T01:17:00.382Z,4.78
2023-04-21T01:18:32.652Z,5.35
2023-04-21T01:20:09.405Z,4.88
2023-04-21T01:21:42.076Z,5.03
2023-04-21T01:23:14.205Z,5.40
2023-04-21T01:24:48.209Z,5.10
2023-04-21T01:26:21.977Z,5.07
2023-04-21T01:27:54.116Z,4.97
2023-04-21T01:29:26.343Z,5.40
2023-04-21T01:30:58.494Z,4.43
2023-04-21T01:32:30.932Z,5.00
2023-04-21T01:34:06.331Z,5.07
2023-04-21T01:35:38.428Z,4.85
2023-04-21T01:37:17.904Z,5.22
2023-04-21T01:38:49.974Z,4.65
2023-04-21T01:40:22.092Z,4.63
2023-04-21T01:41:56.086Z,4.80
2023-04-21T01:43:28.206Z,4.70
2023-04-21T01:45:00.762Z,4.90
2023-04-21T01:46:32.868Z,5.17
2023-04-21T01:48:05.148Z,5.13
2023-04-21T01:49:37.250Z,4.68
2023-04-21T01:51:09.330Z,4.80
2023-04-21T01:52:42.033Z,4.85
2023-04-21T01:54:14.326Z,4.78
2023-04-21T01:55:46.403Z,5.20
2023-04-21T01:57:18.738Z,5.07
2023-04-21T01:58:50.972Z,4.70
2023-04-21T02:00:23.028Z,5.22
2023-04-21T02:01:55.160Z,4.70
2023-04-21T02:03:27.540Z,4.90
2023-04-21T02:04:59.670Z,4.45
2023-04-21T02:06:32.085Z,4.13
2023-04-21T02:08:04.275Z,4.63
2023-04-21T02:09:36.968Z,4.57
2023-04-21T02:11:09.052Z,4.38
2023-04-21T02:12:41.098Z,4.65
2023-04-21T02:14:13.201Z,4.88
2023-04-21T02:15:45.458Z,4.85
2023-04-21T02:17:18.209Z,4.65
2023-04-21T02:18:50.439Z,5.30
2023-04-21T02:20:22.552Z,4.70
2023-04-21T02:21:54.616Z,4.70
2023-04-21T02:23:26.707Z,5.00
2023-04-21T02:24:58.852Z,4.50
2023-04-21T02:26:31.103Z,5.07
2023-04-21T02:28:03.300Z,4.70
2023-04-21T02:29:35.361Z,5.05
2023-04-21T02:31:07.643Z,4.78
2023-04-21T02:32:43.305Z,5.22
2023-04-21T02:34:15.563Z,5.25
2023-04-21T02:35:47.672Z,5.70
2023-04-21T02:37:20.060Z,4.85
2023-04-21T02:38:52.433Z,5.00
2023-04-21T02:40:24.619Z,5.40
2023-04-21T02:41:57.207Z,4.45
2023-04-21T02:43:29.291Z,4.72
2023-04-21T02:45:01.460Z,5.15
2023-04-21T02:46:33.595Z,4.35
2023-04-21T02:48:06.016Z,4.85
2023-04-21T02:49:44.393Z,4.80
2023-04-21T02:51:16.580Z,4.40
2023-04-21T02:52:48.673Z,4.68
2023-04-21T02:54:20.769Z,4.95
2023-04-21T02:55:53.133Z,5.40
2023-04-21T02:57:25.207Z,4.82
2023-04-21T02:58:57.537Z,5.32
2023-04-21T03:00:29.688Z,4.75
2023-04-21T03:02:01.880Z,5.55
2023-04-21T03:03:34.281Z,5.55
2023-04-21T03:05:06.982Z,5.20
2023-04-21T03:06:39.061Z,6.30
2023-04-21T03:08:11.215Z,6.38
2023-04-21T03:09:43.388Z,5.50
2023-04-21T03:11:15.664Z,5.47
2023-04-21T03:12:50.497Z,6.22
2023-04-21T03:14:22.640Z,6.57
2023-04-21T03:15:54.742Z,7.95
2023-04-21T03:17:27.381Z,6.93
2023-04-21T03:18:59.486Z,6.68
2023-04-21T03:20:31.664Z,6.78
2023-04-21T03:22:04.484Z,10.35
2023-04-21T03:23:36.589Z,7.88
2023-04-21T03:25:08.833Z,6.30
2023-04-21T03:26:41.521Z,6.88
2023-04-21T03:28:14.098Z,5.78
2023-04-21T03:29:46.200Z,6.27
2023-04-21T03:31:18.350Z,6.72
2023-04-21T03:32:51.085Z,6.18
2023-04-21T03:34:23.287Z,6.40
2023-04-21T03:35:55.501Z,6.10
2023-04-21T03:37:27.838Z,7.25
2023-04-21T03:39:12.769Z,6.50
2023-04-21T03:40:52.209Z,5.93
2023-04-21T03:42:24.470Z,6.55
2023-04-21T03:43:56.540Z,6.35
2023-04-21T03:45:28.951Z,6.53
2023-04-21T03:47:01.210Z,7.38
2023-04-21T03:48:33.381Z,6.90
2023-04-21T03:50:06.339Z,6.78
2023-04-21T03:51:38.496Z,7.38
2023-04-21T03:53:10.732Z,6.65
2023-04-21T03:54:42.841Z,8.65
2023-04-21T03:56:14.978Z,8.15
2023-04-21T03:57:47.235Z,9.23
2023-04-21T03:59:19.471Z,8.68
2023-04-21T04:00:51.796Z,7.93
2023-04-21T04:02:24.061Z,7.50
2023-04-21T04:03:56.585Z,7.35
2023-04-21T04:05:29.028Z,7.35
2023-04-21T04:07:01.252Z,6.43
2023-04-21T04:08:33.375Z,7.20
2023-04-21T04:10:05.706Z,8.68
2023-04-21T04:11:37.837Z,9.40
2023-04-21T04:13:10.135Z,9.70
2023-04-21T04:14:42.273Z,10.90
2023-04-21T04:16:14.423Z,8.18
2023-04-21T04:17:46.637Z,7.75
2023-04-21T04:19:19.121Z,8.73
2023-04-21T04:20:51.497Z,8.57
2023-04-21T04:22:23.585Z,7.60
2023-04-21T04:23:56.088Z,8.98
2023-04-21T04:25:28.312Z,8.60
2023-04-21T04:27:02.660Z,10.80
2023-04-21T04:28:35.313Z,10.27
2023-04-21T04:30:08.233Z,15.25
2023-04-21T04:31:40.523Z,12.95
2023-04-21T04:33:12.774Z,21.90
2023-04-21T04:34:45.153Z,18.98
2023-04-21T04:36:17.280Z,23.25
2023-04-21T04:37:50.152Z,36.33
2023-04-21T04:39:23.107Z,27.20
2023-04-21T04:40:55.940Z,25.50
2023-04-21T04:42:28.030Z,23.85
2023-04-21T04:44:01.095Z,26.85
2023-04-21T04:45:33.565Z,24.73
2023-04-21T04:47:06.090Z,23.88
2023-04-21T04:48:38.411Z,23.33
2023-04-21T04:50:10.756Z,22.08
2023-04-21T04:51:42.963Z,21.00
2023-04-21T04:53:15.128Z,20.88
2023-04-21T04:54:47.236Z,19.73
2023-04-21T04:56:19.307Z,18.40
2023-04-21T04:57:52.155Z,14.18
2023-04-21T04:59:24.307Z,15.25
2023-04-21T05:00:56.466Z,9.52
2023-04-21T05:02:28.794Z,8.48
2023-04-21T05:04:01.183Z,9.00
2023-04-21T05:05:33.606Z,9.68
2023-04-21T05:07:08.078Z,8.90
2023-04-21T05:08:41.852Z,8.65
2023-04-21T05:10:14.192Z,9.10
2023-04-21T05:11:46.285Z,8.48
2023-04-21T05:13:18.721Z,9.50
2023-04-21T05:14:50.978Z,9.80
2023-04-21T05:16:23.215Z,8.30
2023-04-21T05:17:55.506Z,8.00
2023-04-21T05:19:27.677Z,7.80
2023-04-21T05:20:59.823Z,9.05
2023-04-21T05:22:31.985Z,9.23
2023-04-21T05:24:04.379Z,10.02
2023-04-21T05:25:38.929Z,9.20
2023-04-21T05:27:11.167Z,8.10
2023-04-21T05:28:43.353Z,8.40
2023-04-21T05:30:15.488Z,8.45
2023-04-21T05:31:47.635Z,7.70
2023-04-21T05:33:20.185Z,7.40
2023-04-21T05:34:52.633Z,7.40
2023-04-21T05:36:25.444Z,7.13
2023-04-21T05:37:57.590Z,6.57
2023-04-21T05:39:29.676Z,7.00
2023-04-21T05:41:01.825Z,7.63
2023-04-21T05:42:33.935Z,7.57
2023-04-21T05:44:06.213Z,7.53
2023-04-21T05:45:41.582Z,7.75
2023-04-21T05:47:13.851Z,7.05
2023-04-21T05:48:46.082Z,7.18
2023-04-21T05:50:18.237Z,6.82
2023-04-21T05:51:50.372Z,7.13
2023-04-21T05:53:24.080Z,7.75
2023-04-21T05:54:56.179Z,8.20
2023-04-21T05:56:28.293Z,7.72
2023-04-21T05:58:00.427Z,6.72
2023-04-21T05:59:32.561Z,8.73
2023-04-21T06:01:05.090Z,7.47
2023-04-21T06:02:37.582Z,7.50
2023-04-21T06:04:10.166Z,7.15
2023-04-21T06:05:42.595Z,6.60
2023-04-21T06:07:15.566Z,8.43
2023-04-21T06:08:48.983Z,7.35
2023-04-21T06:10:21.610Z,7.18
2023-04-21T06:11:53.818Z,8.15
2023-04-21T06:13:27.897Z,8.48
2023-04-21T06:15:00.330Z,7.25
2023-04-21T06:16:34.777Z,7.30
2023-04-21T06:18:07.185Z,7.20
2023-04-21T06:19:41.273Z,7.28
2023-04-21T06:21:14.081Z,6.72
2023-04-21T06:22:49.265Z,7.13
2023-04-21T06:24:25.786Z,7.28
2023-04-21T06:26:05.820Z,8.05
2023-04-21T06:27:38.026Z,7.35
2023-04-21T06:29:10.195Z,7.05
2023-04-21T06:30:42.566Z,6.88
2023-04-21T06:32:14.694Z,7.88
2023-04-21T06:33:46.871Z,7.22
2023-04-21T06:35:20.841Z,7.38
2023-04-21T06:36:53.603Z,7.80
2023-04-21T06:38:25.826Z,8.93
2023-04-21T06:39:57.962Z,6.95
2023-04-21T06:41:30.233Z,7.13
2023-04-21T06:43:02.413Z,7.53
2023-04-21T06:44:34.665Z,6.85
2023-04-21T06:46:06.898Z,7.60
2023-04-21T06:47:39.079Z,6.93
2023-04-21T06:49:11.567Z,8.13
2023-04-21T06:50:45.136Z,7.38
2023-04-21T06:53:52.145Z,7.03
2023-04-21T06:55:24.580Z,7.18
2023-04-21T06:56:57.675Z,7.25
2023-04-21T06:58:29.813Z,6.85
2023-04-21T07:00:01.914Z,7.25
2023-04-21T07:01:34.179Z,7.57
2023-04-21T07:03:07.027Z,7.32
2023-04-21T07:04:39.522Z,6.28
2023-04-21T07:06:11.693Z,6.53
2023-04-21T07:07:43.903Z,6.82
2023-04-21T07:09:16.050Z,7.07
2023-04-21T07:10:48.201Z,7.18
2023-04-21T07:12:20.336Z,6.95
2023-04-21T07:13:52.585Z,9.02
2023-04-21T07:15:24.742Z,8.70
2023-04-21T07:16:57.669Z,8.23
2023-04-21T07:18:29.880Z,7.18
2023-04-21T07:20:02.251Z,6.88
2023-04-21T07:21:36.585Z,7.82
2023-04-21T07:23:08.682Z,7.55
2023-04-21T07:24:40.965Z,7.32
2023-04-21T07:26:13.221Z,7.63
2023-04-21T07:27:45.368Z,6.70
2023-04-21T07:29:17.767Z,6.43
2023-04-21T07:30:50.354Z,7.15
2023-04-21T07:32:22.601Z,6.53
2023-04-21T07:33:54.824Z,6.15
2023-04-21T07:35:29.109Z,6.50
2023-04-21T07:37:01.266Z,5.95
2023-04-21T07:38:34.731Z,5.90
2023-04-21T07:40:11.565Z,5.78
2023-04-21T07:41:44.154Z,6.45
2023-04-21T07:43:16.372Z,6.50
2023-04-21T07:44:49.315Z,6.60
2023-04-21T07:46:23.315Z,5.95
2023-04-21T07:47:55.600Z,6.03
2023-04-21T07:49:27.903Z,5.80
2023-04-21T07:51:00.880Z,6.95
2023-04-21T07:52:33.110Z,6.72
2023-04-21T07:54:05.311Z,6.63
2023-04-21T07:55:37.763Z,5.55
2023-04-21T07:57:10.142Z,5.30
2023-04-21T07:58:42.335Z,5.97
2023-04-21T08:00:15.247Z,6.22
2023-04-21T08:01:47.469Z,6.68
2023-04-21T08:03:22.189Z,6.32
2023-04-21T08:04:56.251Z,5.72
2023-04-21T08:06:29.322Z,6.10
2023-04-21T08:08:01.687Z,6.15
2023-04-21T08:09:33.908Z,6.10
2023-04-21T08:11:06.184Z,6.30
2023-04-21T08:12:38.331Z,6.13
2023-04-21T08:14:12.293Z,6.15
2023-04-21T08:15:44.408Z,5.93
2023-04-21T08:17:16.763Z,6.45
2023-04-21T08:18:48.907Z,5.88
2023-04-21T08:20:21.021Z,5.60
2023-04-21T08:21:53.209Z,6.55
2023-04-21T08:23:25.428Z,6.35
2023-04-21T08:24:57.726Z,6.68
2023-04-21T08:26:30.774Z,6.45
2023-04-21T08:28:02.994Z,6.18
2023-04-21T08:29:35.212Z,6.43
2023-04-21T08:31:07.358Z,7.63
2023-04-21T08:32:39.539Z,8.07
2023-04-21T08:34:11.673Z,7.88
2023-04-21T08:35:54.941Z,7.45
2023-04-21T08:37:36.083Z,7.53
2023-04-21T08:39:08.250Z,6.15
2023-04-21T08:40:40.489Z,5.38
2023-04-21T08:42:19.490Z,5.82
2023-04-21T08:43:51.687Z,9.57
2023-04-21T08:45:23.938Z,5.63
2023-04-21T08:46:56.513Z,5.68
2023-04-21T08:48:30.297Z,6.00
2023-04-21T08:50:02.571Z,6.22
2023-04-21T08:51:35.296Z,5.95
2023-04-21T08:53:07.526Z,6.43
2023-04-21T08:54:39.808Z,5.97
2023-04-21T08:56:12.127Z,7.03
2023-04-21T08:57:44.247Z,6.50
2023-04-21T08:59:17.066Z,6.15
2023-04-21T09:00:50.073Z,6.75
2023-04-21T09:02:22.868Z,6.32
2023-04-21T09:03:55.321Z,5.90
2023-04-21T09:05:32.761Z,5.45
2023-04-21T09:07:05.108Z,5.30
2023-04-21T09:08:43.867Z,5.80
2023-04-21T09:10:16.234Z,5.65
2023-04-21T09:11:59.107Z,5.60
2023-04-21T09:13:33.262Z,5.30
2023-04-21T09:15:06.286Z,6.55
2023-04-21T09:16:38.550Z,6.07
2023-04-21T09:18:21.642Z,5.82
2023-04-21T09:19:54.368Z,5.90
2023-04-21T09:21:31.444Z,5.60
2023-04-21T09:23:07.783Z,6.38
2023-04-21T09:24:58.336Z,6.13
2023-04-21T09:26:32.264Z,5.72
2023-04-21T09:28:04.722Z,5.50
2023-04-21T09:29:36.913Z,6.10
2023-04-21T09:31:17.759Z,6.05
2023-04-21T09:32:50.496Z,6.03
2023-04-21T09:34:25.349Z,6.38
2023-04-21T09:36:01.730Z,6.15
2023-04-21T09:37:35.058Z,5.82
2023-04-21T09:40:42.873Z,6.25
2023-04-21T09:42:15.052Z,5.70
2023-04-21T09:43:47.221Z,5.85
2023-04-21T09:47:04.478Z,5.57
2023-04-21T09:48:37.248Z,5.85
2023-04-21T09:50:12.678Z,5.75
2023-04-21T09:52:06.048Z,5.47
2023-04-21T09:53:40.937Z,6.10
2023-04-21T09:55:13.724Z,6.13
2023-04-21T09:56:50.009Z,5.82
2023-04-21T09:58:25.167Z,5.68
2023-04-21T10:00:05.786Z,5.63
2023-04-21T10:01:39.533Z,6.03
2023-04-21T10:03:12.977Z,5.78
2023-04-21T10:04:45.728Z,5.78
2023-04-21T10:06:18.192Z,5.75
2023-04-21T10:07:51.142Z,5.80
2023-04-21T10:09:24.677Z,5.50
2023-04-21T10:12:29.159Z,5.82
2023-04-21T10:14:01.535Z,5.07
2023-04-21T10:15:40.182Z,4.82
2023-04-21T10:17:12.845Z,5.38
2023-04-21T10:18:46.298Z,5.03
2023-04-21T10:20:18.678Z,5.07
2023-04-21T10:21:51.353Z,4.88
2023-04-21T10:23:38.037Z,4.40
2023-04-21T10:25:10.684Z,4.88
2023-04-21T10:26:42.935Z,8.02
2023-04-21T10:28:19.005Z,9.40
2023-04-21T10:29:56.664Z,5.38
2023-04-21T10:31:48.102Z,4.95
2023-04-21T10:33:24.521Z,5.53
2023-04-21T10:34:57.752Z,4.93
2023-04-21T10:38:02.139Z,5.03
2023-04-21T10:39:44.752Z,4.75
2023-04-21T10:41:33.344Z,4.45
2023-04-21T10:43:05.996Z,4.68
2023-04-21T10:44:42.856Z,3.95
2023-04-21T10:46:37.054Z,4.60
2023-04-21T10:49:50.632Z,4.15
2023-04-21T10:51:23.333Z,4.93
2023-04-21T10:53:09.114Z,4.50
2023-04-21T10:54:47.495Z,4.15
2023-04-21T10:56:20.109Z,4.72
2023-04-21T10:57:52.254Z,4.38
2023-04-21T10:59:25.469Z,3.65
2023-04-21T11:00:59.604Z,4.60
2023-04-21T11:02:31.880Z,4.07
2023-04-21T11:04:04.865Z,3.50
2023-04-21T11:05:41.697Z,3.70
2023-04-21T11:07:18.945Z,4.05
2023-04-21T11:08:58.129Z,3.65
2023-04-21T11:10:30.370Z,3.75
2023-04-21T11:12:10.535Z,3.75
2023-04-21T11:13:42.642Z,4.43
2023-04-21T11:15:16.269Z,4.10
2023-04-21T11:16:48.485Z,4.30
2023-04-21T11:18:21.329Z,4.95
2023-04-21T11:19:55.073Z,4.22
2023-04-21T11:21:30.375Z,3.70
2023-04-21T11:23:02.478Z,3.90
2023-04-21T11:24:34.897Z,4.20
2023-04-21T11:26:06.975Z,4.10
2023-04-21T11:27:39.087Z,3.88
2023-04-21T11:29:12.607Z,3.83
2023-04-21T11:30:44.707Z,3.78
2023-04-21T11:32:17.469Z,3.78
2023-04-21T11:33:51.078Z,4.25
2023-04-21T11:35:23.802Z,4.38
2023-04-21T11:36:56.665Z,4.38
2023-04-21T11:38:43.068Z,4.43
2023-04-21T11:40:15.164Z,4.22
2023-04-21T11:41:48.849Z,3.92
2023-04-21T11:43:21.969Z,4.00
2023-04-21T11:44:57.979Z,4.90
2023-04-21T11:46:30.145Z,4.10
2023-04-21T11:48:16.060Z,3.95
2023-04-21T11:49:57.086Z,4.47
2023-04-21T11:51:37.707Z,4.10
2023-04-21T11:53:09.789Z,4.57
2023-04-21T11:54:41.948Z,3.85
2023-04-21T11:56:19.331Z,4.10
2023-04-21T11:57:54.247Z,4.15
2023-04-21T11:59:27.027Z,4.03
2023-04-21T12:00:59.195Z,4.00
2023-04-21T12:02:32.830Z,4.30
2023-04-21T12:04:05.407Z,4.05
2023-04-21T12:05:38.066Z,4.22
2023-04-21T12:07:10.363Z,4.25
2023-04-21T12:08:42.549Z,4.47
2023-04-21T12:10:19.331Z,4.15
2023-04-21T12:11:53.078Z,3.92
2023-04-21T12:13:27.637Z,4.07
2023-04-21T12:15:03.835Z,3.75
2023-04-21T12:16:37.952Z,3.75
2023-04-21T12:18:14.900Z,3.90
2023-04-21T12:19:47.488Z,4.00
2023-04-21T12:21:19.616Z,3.97
2023-04-21T12:22:52.782Z,4.38
2023-04-21T12:24:25.274Z,3.95
2023-04-21T12:25:58.092Z,3.97
2023-04-21T12:27:30.255Z,4.43
2023-04-21T12:29:02.504Z,4.18
2023-04-21T12:30:38.008Z,4.32
2023-04-21T12:32:12.159Z,4.30
2023-04-21T12:33:44.605Z,3.35
2023-04-21T12:35:16.903Z,4.00
2023-04-21T12:36:51.080Z,4.20
2023-04-21T12:38:23.386Z,4.50
2023-04-21T12:39:55.536Z,4.50
2023-04-21T12:41:27.688Z,4.60
2023-04-21T12:42:59.754Z,3.75
2023-04-21T12:44:32.121Z,4.10
2023-04-21T12:46:04.387Z,4.37
2023-04-21T12:47:38.019Z,4.20
2023-04-21T12:49:11.534Z,4.00
2023-04-21T12:50:43.736Z,4.40
2023-04-21T12:52:15.875Z,3.92
2023-04-21T12:53:48.021Z,3.83
2023-04-21T12:55:20.103Z,3.58
2023-04-21T12:56:52.234Z,3.83
2023-04-21T12:58:24.342Z,3.65
2023-04-21T12:59:56.465Z,4.28
2023-04-21T13:01:28.710Z,3.78
2023-04-21T13:03:01.584Z,3.80
2023-04-21T13:04:34.057Z,4.30
2023-04-21T13:06:06.868Z,3.67
2023-04-21T13:07:39.382Z,3.78
2023-04-21T13:09:11.892Z,4.00
2023-04-21T13:10:46.228Z,4.57
2023-04-21T13:12:18.383Z,4.53
2023-04-21T13:13:50.794Z,3.90
2023-04-21T13:15:22.986Z,4.07
2023-04-21T13:16:55.182Z,4.20
2023-04-21T13:18:27.523Z,4.35
2023-04-21T13:19:59.696Z,4.45
2023-04-21T13:21:33.135Z,4.43
2023-04-21T13:23:05.649Z,4.43
2023-04-21T13:24:37.895Z,4.57
2023-04-21T13:26:10.039Z,4.55
2023-04-21T13:27:42.413Z,3.92
2023-04-21T13:29:14.647Z,4.43
2023-04-21T13:30:47.019Z,4.95
2023-04-21T13:32:19.212Z,4.27
2023-04-21T13:33:53.015Z,4.50
2023-04-21T13:35:26.271Z,3.95
2023-04-21T13:36:58.388Z,3.73
2023-04-21T13:38:30.899Z,4.30
2023-04-21T13:40:03.317Z,4.00
2023-04-21T13:41:35.612Z,4.00
2023-04-21T13:44:46.795Z,4.10
2023-04-21T13:46:20.290Z,4.13
2023-04-21T13:47:52.664Z,4.20
2023-04-21T13:49:25.053Z,4.18
2023-04-21T13:50:57.256Z,4.20
2023-04-21T13:52:29.406Z,4.30
2023-04-21T13:54:01.621Z,4.15
2023-04-21T13:55:33.785Z,4.45
2023-04-21T13:57:06.091Z,4.50
2023-04-21T13:58:38.548Z,3.60
2023-04-21T14:00:13.914Z,3.87
2023-04-21T14:01:46.073Z,3.97
2023-04-21T14:03:18.445Z,4.05
2023-04-21T14:04:51.051Z,4.40
2023-04-21T14:06:23.428Z,4.60
2023-04-21T14:07:55.654Z,4.32
2023-04-21T14:09:27.758Z,4.40
2023-04-21T14:10:59.914Z,4.32
2023-04-21T14:12:32.237Z,4.15
2023-04-21T14:15:39.513Z,3.70
2023-04-21T14:17:11.946Z,3.97
2023-04-21T14:18:45.643Z,3.77
2023-04-21T14:20:17.801Z,3.83
2023-04-21T14:21:49.953Z,3.28
2023-04-21T14:23:22.135Z,3.95
2023-04-21T14:24:54.636Z,4.03
2023-04-21T14:26:26.855Z,3.78
2023-04-21T14:27:59.252Z,4.25
2023-04-21T14:29:31.670Z,4.33
2023-04-21T14:31:04.814Z,4.28
2023-04-21T14:32:37.221Z,4.38
2023-04-21T14:34:09.432Z,4.53
2023-04-21T14:35:42.515Z,3.80
2023-04-21T14:37:14.755Z,4.00
2023-04-21T14:38:47.053Z,3.83
2023-04-21T14:40:19.457Z,3.53
2023-04-21T14:41:52.240Z,3.72
2023-04-21T14:43:24.609Z,3.35
2023-04-21T14:44:56.711Z,3.67
2023-04-21T14:46:29.479Z,3.58
2023-04-21T14:48:01.790Z,3.75
2023-04-21T14:49:34.294Z,3.70
2023-04-21T14:51:09.754Z,3.35
2023-04-21T14:52:42.214Z,3.78
2023-04-21T14:54:14.340Z,4.00
2023-04-21T14:55:46.429Z,4.20
2023-04-21T14:57:21.084Z,3.60
2023-04-21T14:58:53.486Z,3.95
2023-04-21T15:00:26.278Z,4.50
2023-04-21T15:01:58.341Z,4.20
2023-04-21T15:03:30.608Z,4.22
2023-04-21T15:05:03.888Z,3.92
2023-04-21T15:08:09.340Z,4.00
2023-04-21T15:09:45.953Z,3.78
2023-04-21T15:11:18.164Z,3.92
2023-04-21T15:12:50.291Z,4.05
2023-04-21T15:14:22.749Z,3.50
2023-04-21T15:15:54.908Z,3.83
2023-04-21T15:17:27.215Z,4.00
2023-04-21T15:18:59.675Z,3.45
2023-04-21T15:20:43.971Z,3.93
2023-04-21T15:22:17.648Z,4.10
2023-04-21T15:23:49.748Z,3.90
2023-04-21T15:25:21.953Z,4.05
2023-04-21T15:26:54.082Z,4.00
2023-04-21T15:28:26.552Z,4.25
2023-04-21T15:29:58.800Z,4.13
2023-04-21T15:31:31.746Z,3.97
2023-04-21T15:33:04.046Z,4.38
2023-04-21T15:34:36.321Z,3.92
2023-04-21T15:36:08.597Z,4.03
2023-04-21T15:37:40.861Z,4.57
2023-04-21T15:39:16.031Z,4.25
2023-04-21T15:41:00.275Z,3.90
2023-04-21T15:42:33.190Z,3.50
2023-04-21T15:44:05.599Z,4.28
2023-04-21T15:45:37.911Z,4.03
2023-04-21T15:47:10.050Z,3.83
2023-04-21T15:48:42.904Z,4.10
2023-04-21T15:50:16.413Z,3.95
2023-04-21T15:51:48.481Z,3.85
2023-04-21T15:53:20.860Z,3.95
2023-04-21T15:54:53.061Z,3.77
2023-04-21T15:58:37.781Z,3.35
2023-04-21T16:00:13.170Z,4.00
2023-04-21T16:01:45.435Z,3.70
2023-04-21T16:03:18.573Z,3.80
2023-04-21T16:04:51.088Z,3.83
2023-04-21T16:06:24.543Z,3.88
2023-04-21T16:09:28.703Z,3.80
2023-04-21T16:11:01.423Z,3.80
2023-04-21T16:12:33.611Z,3.95
2023-04-21T16:14:06.319Z,4.00
2023-04-21T16:15:38.647Z,3.85
2023-04-21T16:17:11.127Z,4.00
2023-04-21T16:18:43.487Z,3.85
2023-04-21T16:20:16.087Z,4.18
2023-04-21T16:21:48.250Z,4.50
2023-04-21T16:23:20.431Z,4.00
2023-04-21T16:24:53.627Z,4.32
2023-04-21T16:27:57.879Z,4.15
2023-04-21T16:29:30.349Z,3.65
2023-04-21T16:31:05.720Z,3.95
2023-04-21T16:32:38.012Z,3.90
2023-04-21T16:34:10.360Z,3.70
2023-04-21T16:35:42.575Z,3.97
2023-04-21T16:37:14.901Z,4.03
2023-04-21T16:38:47.241Z,4.05
2023-04-21T16:40:19.427Z,4.07
2023-04-21T16:41:51.531Z,3.42
2023-04-21T16:43:26.820Z,4.00
2023-04-21T16:44:59.593Z,3.90
2023-04-21T16:46:31.860Z,4.00
2023-04-21T16:48:04.374Z,4.20
2023-04-21T16:49:36.673Z,4.10
2023-04-21T16:51:08.824Z,4.05
2023-04-21T16:52:41.066Z,3.75
2023-04-21T16:54:13.226Z,3.97
2023-04-21T16:55:45.328Z,4.00
2023-04-21T16:57:18.032Z,3.55
2023-04-21T16:58:50.311Z,3.90
2023-04-21T17:00:22.426Z,3.92
2023-04-21T17:01:54.653Z,3.65
2023-04-21T17:03:29.437Z,4.05
2023-04-21T17:05:01.796Z,3.90
2023-04-21T17:06:34.694Z,3.92
2023-04-21T17:08:06.919Z,4.03
2023-04-21T17:09:39.157Z,3.80
2023-04-21T17:11:11.345Z,3.90
2023-04-21T17:12:43.486Z,4.63
2023-04-21T17:14:15.665Z,4.25
2023-04-21T17:15:48.199Z,4.55
2023-04-21T17:17:20.434Z,4.20
2023-04-21T17:18:52.602Z,4.57
2023-04-21T17:20:24.803Z,10.32
2023-04-21T17:21:56.945Z,15.68
2023-04-21T17:23:29.133Z,5.63
2023-04-21T17:25:01.268Z,17.92
2023-04-21T17:26:33.448Z,9.73
2023-04-21T17:28:05.906Z,16.38
2023-04-21T17:29:38.006Z,5.63
2023-04-21T17:31:15.178Z,4.95
2023-04-21T17:32:48.195Z,4.45
2023-04-21T17:34:20.441Z,7.00
2023-04-21T17:36:02.554Z,11.07
2023-04-21T17:37:35.618Z,9.02
2023-04-21T17:39:08.740Z,9.52
2023-04-21T17:40:41.019Z,7.07
2023-04-21T17:42:13.170Z,8.00
2023-04-21T17:43:45.376Z,7.75
2023-04-21T17:45:17.827Z,7.45
2023-04-21T17:46:49.985Z,6.93
2023-04-21T17:48:22.341Z,6.80
2023-04-21T17:49:54.492Z,6.72
2023-04-21T17:51:26.640Z,5.93
2023-04-21T17:52:58.780Z,5.18
2023-04-21T17:54:31.212Z,5.78
2023-04-21T17:56:03.458Z,7.53
2023-04-21T17:57:35.650Z,13.48
2023-04-21T17:59:08.119Z,7.53
2023-04-21T18:00:40.274Z,7.73
2023-04-21T18:02:12.651Z,8.10
2023-04-21T18:03:45.033Z,7.50
2023-04-21T18:05:17.551Z,7.53
2023-04-21T18:06:50.964Z,6.68
2023-04-21T18:09:55.390Z,8.15
2023-04-21T18:11:27.821Z,10.15
2023-04-21T18:13:00.126Z,8.80
2023-04-21T18:14:32.267Z,13.65
2023-04-21T18:17:37.907Z,11.40
2023-04-21T18:19:10.055Z,8.15
2023-04-21T18:20:42.554Z,8.07
2023-04-21T18:22:14.788Z,7.50
2023-04-21T18:23:46.990Z,8.05
2023-04-21T18:25:30.679Z,7.35
2023-04-21T18:27:11.701Z,6.72
2023-04-21T18:28:43.912Z,6.85
2023-04-21T18:30:16.668Z,7.22
2023-04-21T18:31:49.013Z,6.50
2023-04-21T18:33:21.238Z,6.03
2023-04-21T18:34:53.769Z,5.70
2023-04-21T18:36:25.981Z,6.00
2023-04-21T18:37:58.140Z,5.20
2023-04-21T18:39:30.325Z,5.85
2023-04-21T18:41:02.899Z,5.65
2023-04-21T18:42:35.218Z,5.60
2023-04-21T18:44:07.337Z,5.60
2023-04-21T18:45:39.715Z,5.32
2023-04-21T18:47:12.547Z,4.95
2023-04-21T18:48:44.878Z,5.35
2023-04-21T18:50:17.122Z,4.97
2023-04-21T18:51:49.177Z,4.82
2023-04-21T18:53:21.234Z,5.55
2023-04-21T18:54:53.408Z,4.90
2023-04-21T18:56:25.672Z,5.47
2023-04-21T18:57:57.815Z,5.38
2023-04-21T18:59:30.415Z,5.07
2023-04-21T19:01:10.012Z,5.13
2023-04-21T19:02:42.586Z,5.18
2023-04-21T19:04:14.927Z,5.32
2023-04-21T19:05:47.610Z,4.97
2023-04-21T19:07:19.831Z,7.65
2023-04-21T19:08:53.178Z,6.40
2023-04-21T19:11:57.297Z,6.25
2023-04-21T19:13:29.637Z,6.88
2023-04-21T19:15:02.407Z,6.72
2023-04-21T19:16:34.551Z,6.15
2023-04-21T19:18:07.018Z,6.40
2023-04-21T19:19:39.263Z,5.63
2023-04-21T19:21:13.958Z,5.88
2023-04-21T19:22:46.183Z,5.43
2023-04-21T19:24:18.430Z,5.85
2023-04-21T19:25:54.922Z,5.00
2023-04-21T19:27:27.099Z,5.70
2023-04-21T19:28:59.236Z,5.35
2023-04-21T19:32:15.762Z,5.90
2023-04-21T19:33:49.935Z,5.10
2023-04-21T19:35:22.219Z,4.45
2023-04-21T19:36:54.350Z,5.03
2023-04-21T19:38:27.301Z,6.13
2023-04-21T19:39:59.441Z,7.85
2023-04-21T19:41:31.688Z,6.53
2023-04-21T19:43:05.111Z,5.85
2023-04-21T19:46:10.763Z,4.95
2023-04-21T19:47:42.932Z,5.20
2023-04-21T19:49:15.194Z,6.40
2023-04-21T19:50:47.551Z,6.63
2023-04-21T19:52:19.666Z,6.90
2023-04-21T19:54:03.217Z,6.50
2023-04-21T19:55:39.906Z,5.18
2023-04-21T19:57:12.032Z,5.13
2023-04-21T19:58:44.173Z,5.07
2023-04-21T20:00:17.008Z,5.30
2023-04-21T20:01:49.152Z,5.25
2023-04-21T20:03:22.043Z,5.53
2023-04-21T20:04:54.560Z,7.53
2023-04-21T20:06:27.729Z,7.43
2023-04-21T20:08:00.197Z,6.00
2023-04-21T20:09:32.284Z,5.75
2023-04-21T20:11:04.513Z,6.43
2023-04-21T20:12:36.988Z,8.77
2023-04-21T20:14:09.134Z,9.63
2023-04-21T20:15:41.360Z,7.90
2023-04-21T20:17:13.746Z,8.25
2023-04-21T20:18:46.033Z,7.95
2023-04-21T20:20:18.281Z,7.43
2023-04-21T20:21:50.599Z,7.03
2023-04-21T20:23:22.702Z,7.75
2023-04-21T20:24:58.515Z,7.90
2023-04-21T20:26:30.766Z,8.10
2023-04-21T20:28:02.879Z,7.25
2023-04-21T20:29:35.466Z,7.53
2023-04-21T20:31:10.434Z,7.55
2023-04-21T20:32:42.633Z,7.13
2023-04-21T20:34:14.760Z,6.70
2023-04-21T20:35:46.878Z,6.40
2023-04-21T20:37:19.904Z,6.90
2023-04-21T20:38:52.091Z,6.07
2023-04-21T20:40:24.794Z,6.13
2023-04-21T20:42:12.080Z,6.70
2023-04-21T20:43:45.864Z,5.90
2023-04-21T20:45:18.830Z,5.70
2023-04-21T20:46:51.175Z,5.72
2023-04-21T20:48:23.310Z,6.13
2023-04-21T20:49:59.327Z,6.07
2023-04-21T20:51:33.072Z,5.80
2023-04-21T20:53:06.201Z,6.55
2023-04-21T20:54:38.754Z,5.85
2023-04-21T20:56:10.967Z,5.53
2023-04-21T20:57:46.135Z,5.88
2023-04-21T20:59:18.572Z,5.82
2023-04-21T21:00:50.719Z,6.07
2023-04-21T21:02:23.054Z,5.55
2023-04-21T21:03:56.659Z,5.68
2023-04-21T21:05:33.735Z,5.53
2023-04-21T21:07:06.001Z,5.05